Time;durP1;ratioP1;P1;durP2;ratioP2;P2;SDS_P1;SDS_P2;PMS_P1;PMS_P2;Temp;Humidity;BMP_temperature;BMP_pressure;BME280_temperature;BME280_humidity;BME280_pressure;Samples;Min_cycle;Max_cycle;Signal;HPM_P1;HPM_P2
2021/11/09 00:09:15;;;;;;;106.97;37.90;;;;;;;3.35;100.00;101312.20;710440;1211;114547;-74
2021/11/09 00:24:18;;;;;;;110.20;41.20;;;;;;;3.18;100.00;101335.40;710488;1204;114982;-75
2021/11/09 00:39:20;;;;;;;143.70;50.65;;;;;;;2.93;100.00;101351.92;709795;1209;116018;-75
2021/11/09 00:54:24;;;;;;;65.10;26.50;;;;;;;2.74;100.00;101356.98;710371;1183;114673;-75
2021/11/09 01:09:26;;;;;;;163.30;54.15;;;;;;;2.58;100.00;101372.27;710701;1208;114005;-77
2021/11/09 01:24:31;;;;;;;130.97;49.00;;;;;;;2.50;100.00;101388.92;710273;1184;114965;-75
2021/11/09 01:39:36;;;;;;;159.00;52.55;;;;;;;2.25;100.00;101401.08;710050;1209;114402;-75
2021/11/09 01:54:39;;;;;;;151.47;49.33;;;;;;;2.14;100.00;101425.59;709782;1212;114125;-76
2021/11/09 02:09:41;;;;;;;92.95;35.25;;;;;;;2.08;100.00;101432.73;710291;1212;114175;-74
2021/11/09 02:24:44;;;;;;;33.90;13.70;;;;;;;2.02;100.00;101433.80;709800;1209;114106;-75
2021/11/09 02:39:46;;;;;;;48.53;18.80;;;;;;;1.89;100.00;101453.20;710016;1208;114827;-75
2021/11/09 02:54:52;;;;;;;119.57;38.90;;;;;;;1.69;100.00;101462.48;709822;1212;115617;-75
2021/11/09 03:10:04;;;;;;;100.30;34.50;;;;;;;1.54;100.00;101473.30;710017;1209;115020;-75
2021/11/09 03:40:36;;;;;;;182.50;57.75;;;;;;;1.39;100.00;101524.60;710302;1186;114372;-74
2021/11/09 04:42:31;;;;;;;172.25;44.10;;;;;;;0.94;100.00;101587.07;710481;1211;114448;-73
2021/11/09 05:12:10;;;;;;;108.60;40.53;;;;;;;0.62;100.00;101641.27;710493;1186;114214;-74
2021/11/09 05:27:15;;;;;;;142.70;42.20;;;;;;;0.54;100.00;101656.11;710734;1184;114934;-75
2021/11/09 05:42:18;;;;;;;191.90;45.90;;;;;;;0.42;100.00;101658.97;710337;1184;115711;-74
2021/11/09 05:57:20;;;;;;;104.30;33.60;;;;;;;0.28;100.00;101698.86;710626;1207;115018;-74
2021/11/09 06:12:22;;;;;;;93.10;31.70;;;;;;;0.12;100.00;101751.69;710523;1208;115857;-74
2021/11/09 06:27:25;;;;;;;59.00;29.30;;;;;;;-0.02;100.00;101755.41;710340;1209;115546;-74
2021/11/09 06:42:31;;;;;;;178.03;63.33;;;;;;;0.03;100.00;101794.04;710133;1209;115176;-75
2021/11/09 06:57:33;;;;;;;335.30;91.00;;;;;;;0.24;100.00;101809.95;710755;1184;114587;-75
2021/11/09 07:12:35;;;;;;;386.60;134.30;;;;;;;1.34;100.00;101831.61;710371;1186;115899;-75
2021/11/09 07:27:40;;;;;;;412.60;141.80;;;;;;;1.92;100.00;101856.88;711176;1208;115036;-70
2021/11/09 07:42:49;;;;;;;369.60;132.68;;;;;;;2.82;100.00;101870.73;710256;1211;114701;-72
2021/11/09 07:57:58;;;;;;;286.47;119.17;;;;;;;4.42;100.00;101874.94;710057;1195;116296;-74
2021/11/09 08:13:02;;;;;;;145.90;68.10;;;;;;;5.66;100.00;101912.59;711281;1209;115347;-74
2021/11/09 08:28:04;;;;;;;153.05;65.80;;;;;;;6.50;100.00;101925.52;711676;1208;115227;-73
2021/11/09 08:43:06;;;;;;;34.50;19.90;;;;;;;7.53;100.00;101947.73;711902;1209;114314;-72
2021/11/09 09:13:11;;;;;;;22.55;12.20;;;;;;;9.22;99.77;101978.30;710308;1186;114551;-73
2021/11/09 09:58:45;;;;;;;40.50;15.60;;;;;;;11.22;87.00;101980.51;710971;1208;115290;-71
2021/11/09 10:13:47;;;;;;;10.23;4.97;;;;;;;11.45;82.95;101992.98;711610;1208;115054;-71
2021/11/09 10:28:49;;;;;;;26.60;13.90;;;;;;;11.77;79.93;101990.05;710859;1208;113958;-72
2021/11/09 10:44:09;;;;;;;14.20;7.60;;;;;;;11.60;76.57;101996.42;710396;1208;116006;-72
2021/11/09 10:59:25;;;;;;;8.95;4.65;;;;;;;11.85;74.15;101980.80;711745;1184;115257;-72
2021/11/09 11:14:30;;;;;;;14.30;6.90;;;;;;;11.52;71.99;101963.68;710723;1209;115474;-73
2021/11/09 11:29:36;;;;;;;4.73;2.73;;;;;;;11.89;69.45;101967.36;712992;1209;114860;-71
2021/11/09 11:44:41;;;;;;;6.30;3.00;;;;;;;12.13;70.13;101972.77;710949;1184;114132;-74
2021/11/09 11:59:43;;;;;;;5.90;3.25;;;;;;;12.42;67.61;101966.47;713571;1186;113843;-70
2021/11/09 12:14:56;;;;;;;5.70;3.00;;;;;;;12.67;66.25;101981.40;711067;1208;115353;-73
2021/11/09 12:30:00;;;;;;;35.10;16.45;;;;;;;13.83;65.43;102002.09;713952;1209;114648;-73
2021/11/09 12:45:12;;;;;;;12.80;5.60;;;;;;;13.80;63.75;102000.52;710516;1212;113770;-72
2021/11/09 13:00:18;;;;;;;51.90;22.40;;;;;;;13.79;60.67;101998.83;710387;1212;115350;-71
2021/11/09 13:15:24;;;;;;;8.58;6.03;;;;;;;12.63;60.25;101985.20;710605;1209;114754;-71
2021/11/09 13:30:27;;;;;;;17.55;7.50;;;;;;;13.25;59.64;101981.66;710868;1208;114515;-73
2021/11/09 13:45:38;;;;;;;38.63;10.80;;;;;;;18.59;57.55;101987.61;710615;1212;115063;-74
2021/11/09 14:00:45;;;;;;;14.70;6.70;;;;;;;14.93;57.33;101991.06;710510;1209;114203;-75
2021/11/09 14:31:17;;;;;;;6.50;3.73;;;;;;;11.20;62.20;101974.49;710734;1208;115845;-75
2021/11/09 14:46:26;;;;;;;123.13;36.93;;;;;;;11.79;62.45;101948.70;710412;1186;114844;-74
2021/11/09 15:01:57;;;;;;;247.80;99.35;;;;;;;8.98;64.94;101952.55;710261;1183;114593;-75
2021/11/09 15:32:28;;;;;;;67.40;34.60;;;;;;;7.53;69.35;101946.91;710474;1209;114938;-73
2021/11/09 15:47:31;;;;;;;102.60;42.33;;;;;;;6.95;70.63;101957.41;709774;1187;113911;-75
2021/11/09 16:02:34;;;;;;;39.50;19.03;;;;;;;6.85;72.07;101952.69;710736;1183;114778;-75
2021/11/09 16:17:39;;;;;;;26.80;12.70;;;;;;;6.74;74.01;101961.84;711195;1208;115486;-72
2021/11/09 16:32:58;;;;;;;22.30;11.80;;;;;;;6.56;75.69;101966.14;710687;1209;114130;-72
2021/11/09 16:48:06;;;;;;;243.60;66.80;;;;;;;6.30;77.76;101960.30;710505;1209;113866;-71
2021/11/09 18:19:59;;;;;;;32.88;17.15;;;;;;;4.95;87.67;102021.22;710595;1183;113883;-75
2021/11/09 18:35:09;;;;;;;34.30;15.80;;;;;;;4.86;90.67;102022.39;711558;1208;114053;-76
2021/11/09 18:50:12;;;;;;;39.33;19.03;;;;;;;4.94;93.42;102020.34;710565;1191;113429;-76
2021/11/09 19:05:19;;;;;;;83.90;36.68;;;;;;;5.09;95.83;102018.09;711012;1212;113941;-74
2021/11/09 19:20:22;;;;;;;171.10;73.10;;;;;;;5.12;98.30;102011.02;711201;1183;113891;-75
2021/11/09 19:35:26;;;;;;;331.00;113.90;;;;;;;5.26;98.75;102026.09;710278;1184;114172;-74
2021/11/09 19:50:30;;;;;;;149.73;61.40;;;;;;;5.34;100.00;102015.40;710209;1184;114582;-75
2021/11/09 20:05:32;;;;;;;96.90;39.50;;;;;;;5.43;100.00;102020.25;709574;1183;114238;-75
2021/11/09 20:20:37;;;;;;;74.03;31.07;;;;;;;5.45;100.00;102012.38;709773;1185;114192;-75
2021/11/09 20:35:40;;;;;;;56.45;27.60;;;;;;;5.36;100.00;102015.33;710324;1212;114673;-76
2021/11/09 20:50:43;;;;;;;53.73;26.73;;;;;;;5.23;100.00;102013.21;710248;1183;114290;-75
2021/11/09 21:05:46;;;;;;;53.45;23.75;;;;;;;5.20;100.00;101991.66;710286;1210;114194;-74
2021/11/09 21:21:02;;;;;;;49.23;22.50;;;;;;;5.15;100.00;101990.08;710248;1209;115342;-76
2021/11/09 21:36:10;;;;;;;51.35;23.35;;;;;;;5.19;100.00;101980.41;710530;1183;114189;-74
2021/11/09 21:51:12;;;;;;;49.45;23.60;;;;;;;5.24;100.00;101982.82;710406;1184;114249;-76
2021/11/09 22:06:15;;;;;;;49.13;21.90;;;;;;;5.19;100.00;101976.95;710757;1183;113338;-74
2021/11/09 22:21:17;;;;;;;56.40;24.00;;;;;;;5.13;100.00;101989.31;710058;1184;114046;-75
2021/11/09 22:36:20;;;;;;;55.80;26.20;;;;;;;5.09;100.00;101992.91;710074;1184;114461;-74
2021/11/09 22:51:22;;;;;;;51.70;25.20;;;;;;;5.09;100.00;101992.91;710399;1191;114198;-78
2021/11/09 23:06:24;;;;;;;58.23;25.30;;;;;;;5.09;100.00;101977.30;710444;1209;114771;-74
2021/11/09 23:21:27;;;;;;;54.20;25.00;;;;;;;5.12;100.00;101964.19;710681;1184;114335;-74
2021/11/09 23:36:29;;;;;;;41.65;20.65;;;;;;;5.23;100.00;101942.13;710308;1209;115727;-75
2021/11/09 23:51:31;;;;;;;42.90;21.00;;;;;;;5.17;100.00;101911.96;709950;1212;115716;-75
